sensor_id;sensor_type;location;lat;lon;timestamp;P1;durP1;ratioP1;P2;durP2;ratioP2
19213;SDS011;9741;51.020;5.304;2022-12-05T00:01:14;13.27;;;6.97;;
19213;SDS011;9741;51.020;5.304;2022-12-05T00:03:43;7.97;;;5.07;;
19213;SDS011;9741;51.020;5.304;2022-12-05T00:06:10;10.20;;;4.80;;
19213;SDS011;9741;51.020;5.304;2022-12-05T00:08:37;13.77;;;6.30;;
19213;SDS011;9741;51.020;5.304;2022-12-05T00:11:09;13.20;;;5.13;;
19213;SDS011;9741;51.020;5.304;2022-12-05T00:13:39;16.63;;;6.17;;
19213;SDS011;9741;51.020;5.304;2022-12-05T00:16:07;19.20;;;6.43;;
19213;SDS011;9741;51.020;5.304;2022-12-05T00:18:36;7.93;;;4.63;;
19213;SDS011;9741;51.020;5.304;2022-12-05T00:21:05;13.37;;;5.73;;
19213;SDS011;9741;51.020;5.304;2022-12-05T00:23:33;8.00;;;5.37;;
19213;SDS011;9741;51.020;5.304;2022-12-05T00:26:01;16.87;;;6.20;;
19213;SDS011;9741;51.020;5.304;2022-12-05T00:28:29;6.70;;;4.57;;
19213;SDS011;9741;51.020;5.304;2022-12-05T00:30:59;15.47;;;6.07;;
19213;SDS011;9741;51.020;5.304;2022-12-05T00:33:27;9.13;;;6.00;;
19213;SDS011;9741;51.020;5.304;2022-12-05T00:35:54;20.47;;;5.77;;
19213;SDS011;9741;51.020;5.304;2022-12-05T00:38:26;14.93;;;5.50;;
19213;SDS011;9741;51.020;5.304;2022-12-05T00:40:53;9.10;;;4.70;;
19213;SDS011;9741;51.020;5.304;2022-12-05T00:43:20;12.97;;;6.77;;
19213;SDS011;9741;51.020;5.304;2022-12-05T00:45:47;6.17;;;4.37;;
19213;SDS011;9741;51.020;5.304;2022-12-05T00:48:18;11.13;;;5.37;;
19213;SDS011;9741;51.020;5.304;2022-12-05T00:50:45;8.43;;;5.77;;
19213;SDS011;9741;51.020;5.304;2022-12-05T00:53:12;3.27;;;3.00;;
19213;SDS011;9741;51.020;5.304;2022-12-05T00:55:39;9.07;;;5.33;;
19213;SDS011;9741;51.020;5.304;2022-12-05T00:58:06;3.27;;;3.03;;
19213;SDS011;9741;51.020;5.304;2022-12-05T01:00:33;9.57;;;5.80;;
19213;SDS011;9741;51.020;5.304;2022-12-05T01:03:00;9.90;;;6.57;;
19213;SDS011;9741;51.020;5.304;2022-12-05T01:05:28;12.20;;;6.53;;
19213;SDS011;9741;51.020;5.304;2022-12-05T01:07:55;12.43;;;4.80;;
19213;SDS011;9741;51.020;5.304;2022-12-05T01:10:22;14.90;;;6.00;;
19213;SDS011;9741;51.020;5.304;2022-12-05T01:12:49;7.87;;;5.30;;
19213;SDS011;9741;51.020;5.304;2022-12-05T01:15:16;12.43;;;6.53;;
19213;SDS011;9741;51.020;5.304;2022-12-05T01:17:43;8.23;;;4.87;;
19213;SDS011;9741;51.020;5.304;2022-12-05T01:20:10;6.67;;;4.73;;
19213;SDS011;9741;51.020;5.304;2022-12-05T01:22:39;8.60;;;4.83;;
19213;SDS011;9741;51.020;5.304;2022-12-05T01:25:07;6.60;;;4.27;;
19213;SDS011;9741;51.020;5.304;2022-12-05T01:27:34;16.97;;;5.23;;
19213;SDS011;9741;51.020;5.304;2022-12-05T01:30:02;14.67;;;5.70;;
19213;SDS011;9741;51.020;5.304;2022-12-05T01:32:30;10.97;;;6.23;;
19213;SDS011;9741;51.020;5.304;2022-12-05T01:34:58;5.17;;;2.57;;
19213;SDS011;9741;51.020;5.304;2022-12-05T01:37:25;14.77;;;5.60;;
19213;SDS011;9741;51.020;5.304;2022-12-05T01:39:54;7.40;;;4.20;;
19213;SDS011;9741;51.020;5.304;2022-12-05T01:42:21;16.37;;;5.57;;
19213;SDS011;9741;51.020;5.304;2022-12-05T01:44:59;9.73;;;4.87;;
19213;SDS011;9741;51.020;5.304;2022-12-05T01:47:29;11.57;;;5.93;;
19213;SDS011;9741;51.020;5.304;2022-12-05T01:49:59;15.93;;;5.27;;
19213;SDS011;9741;51.020;5.304;2022-12-05T01:52:27;8.97;;;5.77;;
19213;SDS011;9741;51.020;5.304;2022-12-05T01:54:59;3.27;;;2.97;;
19213;SDS011;9741;51.020;5.304;2022-12-05T01:57:31;7.27;;;5.03;;
19213;SDS011;9741;51.020;5.304;2022-12-05T02:00:00;13.20;;;5.57;;
19213;SDS011;9741;51.020;5.304;2022-12-05T02:02:29;10.73;;;3.70;;
19213;SDS011;9741;51.020;5.304;2022-12-05T02:04:59;9.07;;;4.40;;
19213;SDS011;9741;51.020;5.304;2022-12-05T02:07:30;15.63;;;4.80;;
19213;SDS011;9741;51.020;5.304;2022-12-05T02:09:59;8.70;;;4.33;;
19213;SDS011;9741;51.020;5.304;2022-12-05T02:12:26;5.43;;;4.90;;
19213;SDS011;9741;51.020;5.304;2022-12-05T02:15:01;10.57;;;5.03;;
19213;SDS011;9741;51.020;5.304;2022-12-05T02:17:42;10.70;;;4.63;;
19213;SDS011;9741;51.020;5.304;2022-12-05T02:20:29;14.90;;;6.07;;
19213;SDS011;9741;51.020;5.304;2022-12-05T02:29:11;8.47;;;6.27;;
19213;SDS011;9741;51.020;5.304;2022-12-05T02:31:56;5.77;;;4.23;;
19213;SDS011;9741;51.020;5.304;2022-12-05T02:34:33;7.77;;;4.43;;
19213;SDS011;9741;51.020;5.304;2022-12-05T02:37:05;9.73;;;3.83;;
19213;SDS011;9741;51.020;5.304;2022-12-05T02:39:39;5.33;;;4.13;;
19213;SDS011;9741;51.020;5.304;2022-12-05T02:42:11;5.50;;;3.50;;
19213;SDS011;9741;51.020;5.304;2022-12-05T02:44:44;5.33;;;3.43;;
19213;SDS011;9741;51.020;5.304;2022-12-05T02:47:17;8.53;;;6.20;;
19213;SDS011;9741;51.020;5.304;2022-12-05T02:49:48;10.30;;;5.03;;
19213;SDS011;9741;51.020;5.304;2022-12-05T02:52:18;11.73;;;5.23;;
19213;SDS011;9741;51.020;5.304;2022-12-05T02:54:46;12.37;;;5.80;;
19213;SDS011;9741;51.020;5.304;2022-12-05T02:57:16;10.47;;;3.73;;
19213;SDS011;9741;51.020;5.304;2022-12-05T02:59:44;12.53;;;4.13;;
19213;SDS011;9741;51.020;5.304;2022-12-05T03:02:21;5.80;;;3.80;;
19213;SDS011;9741;51.020;5.304;2022-12-05T03:04:50;9.53;;;5.20;;
19213;SDS011;9741;51.020;5.304;2022-12-05T03:07:18;14.37;;;5.97;;
19213;SDS011;9741;51.020;5.304;2022-12-05T03:09:46;11.27;;;4.17;;
19213;SDS011;9741;51.020;5.304;2022-12-05T03:12:19;6.80;;;4.40;;
19213;SDS011;9741;51.020;5.304;2022-12-05T03:14:51;14.43;;;6.07;;
19213;SDS011;9741;51.020;5.304;2022-12-05T03:17:25;14.13;;;5.17;;
19213;SDS011;9741;51.020;5.304;2022-12-05T03:19:56;14.43;;;5.30;;
19213;SDS011;9741;51.020;5.304;2022-12-05T03:22:29;9.97;;;3.80;;
19213;SDS011;9741;51.020;5.304;2022-12-05T03:25:01;8.37;;;5.57;;
19213;SDS011;9741;51.020;5.304;2022-12-05T03:27:29;9.07;;;5.43;;
19213;SDS011;9741;51.020;5.304;2022-12-05T03:30:05;11.73;;;4.97;;
19213;SDS011;9741;51.020;5.304;2022-12-05T03:32:37;8.07;;;5.80;;
19213;SDS011;9741;51.020;5.304;2022-12-05T03:35:08;12.90;;;5.57;;
19213;SDS011;9741;51.020;5.304;2022-12-05T03:37:44;11.97;;;4.60;;
19213;SDS011;9741;51.020;5.304;2022-12-05T03:40:22;10.60;;;5.63;;
19213;SDS011;9741;51.020;5.304;2022-12-05T03:42:56;13.03;;;6.93;;
19213;SDS011;9741;51.020;5.304;2022-12-05T03:45:30;8.80;;;4.80;;
19213;SDS011;9741;51.020;5.304;2022-12-05T03:48:05;10.17;;;5.30;;
19213;SDS011;9741;51.020;5.304;2022-12-05T03:50:36;13.93;;;6.30;;
19213;SDS011;9741;51.020;5.304;2022-12-05T03:53:05;5.80;;;4.17;;
19213;SDS011;9741;51.020;5.304;2022-12-05T03:55:37;10.93;;;5.93;;
19213;SDS011;9741;51.020;5.304;2022-12-05T03:58:07;13.10;;;5.13;;
19213;SDS011;9741;51.020;5.304;2022-12-05T04:00:39;8.23;;;4.97;;
19213;SDS011;9741;51.020;5.304;2022-12-05T04:03:12;6.00;;;3.60;;
19213;SDS011;9741;51.020;5.304;2022-12-05T04:05:49;7.87;;;5.20;;
19213;SDS011;9741;51.020;5.304;2022-12-05T04:08:18;6.67;;;5.20;;
19213;SDS011;9741;51.020;5.304;2022-12-05T04:10:48;11.03;;;6.07;;
19213;SDS011;9741;51.020;5.304;2022-12-05T04:13:20;11.33;;;5.07;;
19213;SDS011;9741;51.020;5.304;2022-12-05T04:15:53;14.40;;;4.27;;
19213;SDS011;9741;51.020;5.304;2022-12-05T04:18:45;17.50;;;5.53;;
19213;SDS011;9741;51.020;5.304;2022-12-05T04:21:16;6.33;;;5.00;;
19213;SDS011;9741;51.020;5.304;2022-12-05T04:24:02;7.57;;;2.83;;
19213;SDS011;9741;51.020;5.304;2022-12-05T04:26:45;8.40;;;5.47;;
19213;SDS011;9741;51.020;5.304;2022-12-05T04:29:24;11.67;;;5.43;;
19213;SDS011;9741;51.020;5.304;2022-12-05T04:31:56;10.17;;;3.73;;
19213;SDS011;9741;51.020;5.304;2022-12-05T04:34:30;6.03;;;3.97;;
19213;SDS011;9741;51.020;5.304;2022-12-05T04:37:01;9.20;;;5.23;;
19213;SDS011;9741;51.020;5.304;2022-12-05T04:39:33;5.17;;;3.43;;
19213;SDS011;9741;51.020;5.304;2022-12-05T04:42:06;9.30;;;4.23;;
19213;SDS011;9741;51.020;5.304;2022-12-05T04:44:36;9.13;;;3.67;;
19213;SDS011;9741;51.020;5.304;2022-12-05T04:47:08;6.87;;;4.73;;
19213;SDS011;9741;51.020;5.304;2022-12-05T04:49:40;9.30;;;5.03;;
19213;SDS011;9741;51.020;5.304;2022-12-05T04:52:10;4.23;;;3.63;;
19213;SDS011;9741;51.020;5.304;2022-12-05T04:54:40;8.03;;;5.70;;
19213;SDS011;9741;51.020;5.304;2022-12-05T04:57:11;5.57;;;3.67;;
19213;SDS011;9741;51.020;5.304;2022-12-05T04:59:42;7.00;;;3.73;;
19213;SDS011;9741;51.020;5.304;2022-12-05T05:02:12;8.00;;;4.93;;
19213;SDS011;9741;51.020;5.304;2022-12-05T05:04:45;6.40;;;5.20;;
19213;SDS011;9741;51.020;5.304;2022-12-05T05:07:15;10.10;;;4.87;;
19213;SDS011;9741;51.020;5.304;2022-12-05T05:09:42;6.33;;;4.67;;
19213;SDS011;9741;51.020;5.304;2022-12-05T05:12:10;5.17;;;3.57;;
19213;SDS011;9741;51.020;5.304;2022-12-05T05:14:37;5.47;;;4.20;;
19213;SDS011;9741;51.020;5.304;2022-12-05T05:17:04;6.37;;;4.07;;
19213;SDS011;9741;51.020;5.304;2022-12-05T05:19:31;19.03;;;4.83;;
19213;SDS011;9741;51.020;5.304;2022-12-05T05:22:00;8.97;;;5.63;;
19213;SDS011;9741;51.020;5.304;2022-12-05T05:24:27;14.03;;;5.57;;
19213;SDS011;9741;51.020;5.304;2022-12-05T05:26:54;10.53;;;5.13;;
19213;SDS011;9741;51.020;5.304;2022-12-05T05:29:21;7.07;;;4.40;;
19213;SDS011;9741;51.020;5.304;2022-12-05T05:31:48;9.97;;;4.93;;
19213;SDS011;9741;51.020;5.304;2022-12-05T05:34:15;4.47;;;3.80;;
19213;SDS011;9741;51.020;5.304;2022-12-05T05:36:42;5.60;;;4.20;;
19213;SDS011;9741;51.020;5.304;2022-12-05T05:39:12;18.00;;;4.53;;
19213;SDS011;9741;51.020;5.304;2022-12-05T05:41:40;8.53;;;4.33;;
19213;SDS011;9741;51.020;5.304;2022-12-05T05:44:08;8.13;;;5.17;;
19213;SDS011;9741;51.020;5.304;2022-12-05T05:46:35;10.33;;;4.47;;
19213;SDS011;9741;51.020;5.304;2022-12-05T05:49:03;11.40;;;5.87;;
19213;SDS011;9741;51.020;5.304;2022-12-05T05:51:30;10.17;;;5.60;;
19213;SDS011;9741;51.020;5.304;2022-12-05T05:53:57;7.13;;;4.27;;
19213;SDS011;9741;51.020;5.304;2022-12-05T05:56:26;23.60;;;4.70;;
19213;SDS011;9741;51.020;5.304;2022-12-05T05:58:54;13.37;;;6.37;;
19213;SDS011;9741;51.020;5.304;2022-12-05T06:01:23;15.17;;;6.50;;
19213;SDS011;9741;51.020;5.304;2022-12-05T06:03:50;8.93;;;5.97;;
19213;SDS011;9741;51.020;5.304;2022-12-05T06:06:18;8.60;;;4.33;;
19213;SDS011;9741;51.020;5.304;2022-12-05T06:08:45;7.90;;;3.57;;
19213;SDS011;9741;51.020;5.304;2022-12-05T06:11:13;13.13;;;4.17;;
19213;SDS011;9741;51.020;5.304;2022-12-05T06:13:43;3.40;;;2.97;;
19213;SDS011;9741;51.020;5.304;2022-12-05T06:16:11;11.83;;;4.30;;
19213;SDS011;9741;51.020;5.304;2022-12-05T06:18:40;7.13;;;5.43;;
19213;SDS011;9741;51.020;5.304;2022-12-05T06:21:07;6.53;;;3.87;;
19213;SDS011;9741;51.020;5.304;2022-12-05T06:23:36;5.63;;;4.50;;
19213;SDS011;9741;51.020;5.304;2022-12-05T06:26:04;8.70;;;4.43;;
19213;SDS011;9741;51.020;5.304;2022-12-05T06:28:35;14.07;;;6.10;;
19213;SDS011;9741;51.020;5.304;2022-12-05T06:31:07;13.77;;;6.43;;
19213;SDS011;9741;51.020;5.304;2022-12-05T06:33:34;10.87;;;4.87;;
19213;SDS011;9741;51.020;5.304;2022-12-05T06:36:02;13.87;;;5.00;;
19213;SDS011;9741;51.020;5.304;2022-12-05T06:38:31;9.47;;;4.13;;
19213;SDS011;9741;51.020;5.304;2022-12-05T06:40:58;8.40;;;5.47;;
19213;SDS011;9741;51.020;5.304;2022-12-05T06:43:25;8.57;;;5.60;;
19213;SDS011;9741;51.020;5.304;2022-12-05T06:45:52;6.63;;;4.53;;
19213;SDS011;9741;51.020;5.304;2022-12-05T06:48:20;13.03;;;6.27;;
19213;SDS011;9741;51.020;5.304;2022-12-05T06:50:48;8.27;;;2.77;;
19213;SDS011;9741;51.020;5.304;2022-12-05T06:53:16;8.17;;;4.67;;
19213;SDS011;9741;51.020;5.304;2022-12-05T06:55:44;4.27;;;3.40;;
19213;SDS011;9741;51.020;5.304;2022-12-05T06:58:20;8.13;;;4.80;;
19213;SDS011;9741;51.020;5.304;2022-12-05T07:00:47;14.57;;;6.27;;
19213;SDS011;9741;51.020;5.304;2022-12-05T07:03:33;9.10;;;3.47;;
19213;SDS011;9741;51.020;5.304;2022-12-05T07:06:00;11.97;;;6.60;;
19213;SDS011;9741;51.020;5.304;2022-12-05T07:08:28;6.73;;;4.60;;
19213;SDS011;9741;51.020;5.304;2022-12-05T07:10:55;11.00;;;3.77;;
19213;SDS011;9741;51.020;5.304;2022-12-05T07:13:22;13.47;;;3.60;;
19213;SDS011;9741;51.020;5.304;2022-12-05T07:15:50;6.13;;;4.20;;
19213;SDS011;9741;51.020;5.304;2022-12-05T07:18:17;9.67;;;4.03;;
19213;SDS011;9741;51.020;5.304;2022-12-05T07:20:50;8.23;;;4.93;;
19213;SDS011;9741;51.020;5.304;2022-12-05T07:23:24;9.17;;;4.33;;
19213;SDS011;9741;51.020;5.304;2022-12-05T07:25:51;10.57;;;5.70;;
19213;SDS011;9741;51.020;5.304;2022-12-05T07:28:18;4.20;;;3.40;;
19213;SDS011;9741;51.020;5.304;2022-12-05T07:30:46;5.70;;;3.87;;
19213;SDS011;9741;51.020;5.304;2022-12-05T07:33:13;14.63;;;5.93;;
19213;SDS011;9741;51.020;5.304;2022-12-05T07:35:40;10.77;;;6.33;;
19213;SDS011;9741;51.020;5.304;2022-12-05T07:38:09;5.63;;;4.23;;
19213;SDS011;9741;51.020;5.304;2022-12-05T07:40:36;6.30;;;3.77;;
19213;SDS011;9741;51.020;5.304;2022-12-05T07:43:03;11.87;;;4.33;;
19213;SDS011;9741;51.020;5.304;2022-12-05T07:45:32;11.13;;;4.07;;
19213;SDS011;9741;51.020;5.304;2022-12-05T07:47:59;14.27;;;5.60;;
19213;SDS011;9741;51.020;5.304;2022-12-05T07:50:26;4.30;;;3.90;;
19213;SDS011;9741;51.020;5.304;2022-12-05T07:52:53;14.37;;;4.37;;
19213;SDS011;9741;51.020;5.304;2022-12-05T07:55:22;9.13;;;6.20;;
19213;SDS011;9741;51.020;5.304;2022-12-05T07:57:49;6.57;;;4.03;;
19213;SDS011;9741;51.020;5.304;2022-12-05T08:00:16;11.00;;;5.03;;
19213;SDS011;9741;51.020;5.304;2022-12-05T08:02:44;6.93;;;4.73;;
19213;SDS011;9741;51.020;5.304;2022-12-05T08:05:11;5.57;;;3.90;;
19213;SDS011;9741;51.020;5.304;2022-12-05T08:07:39;4.50;;;4.00;;
19213;SDS011;9741;51.020;5.304;2022-12-05T08:10:07;6.30;;;5.47;;
19213;SDS011;9741;51.020;5.304;2022-12-05T08:12:36;6.73;;;3.87;;
19213;SDS011;9741;51.020;5.304;2022-12-05T08:15:05;7.97;;;5.07;;
19213;SDS011;9741;51.020;5.304;2022-12-05T08:17:34;8.50;;;3.50;;
19213;SDS011;9741;51.020;5.304;2022-12-05T08:20:01;8.77;;;4.37;;
19213;SDS011;9741;51.020;5.304;2022-12-05T08:22:29;5.83;;;3.37;;
19213;SDS011;9741;51.020;5.304;2022-12-05T08:24:56;5.87;;;3.97;;
19213;SDS011;9741;51.020;5.304;2022-12-05T08:27:23;6.67;;;4.77;;
19213;SDS011;9741;51.020;5.304;2022-12-05T08:29:52;6.87;;;4.70;;
19213;SDS011;9741;51.020;5.304;2022-12-05T08:32:19;3.87;;;2.67;;
19213;SDS011;9741;51.020;5.304;2022-12-05T08:34:46;12.10;;;4.70;;
19213;SDS011;9741;51.020;5.304;2022-12-05T08:37:13;4.43;;;3.37;;
19213;SDS011;9741;51.020;5.304;2022-12-05T08:39:40;7.70;;;3.77;;
19213;SDS011;9741;51.020;5.304;2022-12-05T08:42:07;7.10;;;4.27;;
19213;SDS011;9741;51.020;5.304;2022-12-05T08:44:34;3.10;;;2.37;;
19213;SDS011;9741;51.020;5.304;2022-12-05T08:47:03;6.77;;;4.60;;
19213;SDS011;9741;51.020;5.304;2022-12-05T08:49:30;6.63;;;3.77;;
19213;SDS011;9741;51.020;5.304;2022-12-05T08:51:57;6.20;;;3.87;;
19213;SDS011;9741;51.020;5.304;2022-12-05T08:54:24;4.27;;;3.37;;
19213;SDS011;9741;51.020;5.304;2022-12-05T08:56:52;8.00;;;3.53;;
19213;SDS011;9741;51.020;5.304;2022-12-05T08:59:19;6.23;;;3.70;;
19213;SDS011;9741;51.020;5.304;2022-12-05T09:01:47;6.03;;;4.47;;
19213;SDS011;9741;51.020;5.304;2022-12-05T09:04:17;2.73;;;2.40;;
19213;SDS011;9741;51.020;5.304;2022-12-05T09:06:44;7.07;;;4.17;;
19213;SDS011;9741;51.020;5.304;2022-12-05T09:09:11;6.53;;;3.43;;
19213;SDS011;9741;51.020;5.304;2022-12-05T09:11:40;3.00;;;2.70;;
19213;SDS011;9741;51.020;5.304;2022-12-05T09:14:10;8.37;;;3.67;;
19213;SDS011;9741;51.020;5.304;2022-12-05T09:16:38;11.47;;;4.53;;
19213;SDS011;9741;51.020;5.304;2022-12-05T09:19:05;6.23;;;4.23;;
19213;SDS011;9741;51.020;5.304;2022-12-05T09:21:38;6.20;;;2.87;;
19213;SDS011;9741;51.020;5.304;2022-12-05T09:24:05;6.40;;;3.67;;
19213;SDS011;9741;51.020;5.304;2022-12-05T09:26:32;11.73;;;4.00;;
19213;SDS011;9741;51.020;5.304;2022-12-05T09:29:00;9.50;;;4.07;;
19213;SDS011;9741;51.020;5.304;2022-12-05T09:31:28;6.23;;;3.83;;
19213;SDS011;9741;51.020;5.304;2022-12-05T09:33:55;6.67;;;3.47;;
19213;SDS011;9741;51.020;5.304;2022-12-05T09:36:23;5.70;;;3.87;;
19213;SDS011;9741;51.020;5.304;2022-12-05T09:38:53;9.30;;;3.57;;
19213;SDS011;9741;51.020;5.304;2022-12-05T09:41:27;4.20;;;2.80;;
19213;SDS011;9741;51.020;5.304;2022-12-05T09:44:26;8.83;;;3.43;;
19213;SDS011;9741;51.020;5.304;2022-12-05T09:47:01;3.80;;;2.10;;
19213;SDS011;9741;51.020;5.304;2022-12-05T09:49:36;4.53;;;3.03;;
19213;SDS011;9741;51.020;5.304;2022-12-05T09:52:14;7.93;;;4.00;;
19213;SDS011;9741;51.020;5.304;2022-12-05T09:54:49;2.87;;;1.97;;
19213;SDS011;9741;51.020;5.304;2022-12-05T09:57:21;2.43;;;2.07;;
19213;SDS011;9741;51.020;5.304;2022-12-05T09:59:55;1.77;;;1.50;;
19213;SDS011;9741;51.020;5.304;2022-12-05T10:02:24;5.03;;;2.60;;
19213;SDS011;9741;51.020;5.304;2022-12-05T10:04:58;6.37;;;3.60;;
19213;SDS011;9741;51.020;5.304;2022-12-05T10:07:33;4.87;;;3.10;;
19213;SDS011;9741;51.020;5.304;2022-12-05T10:10:11;3.70;;;2.50;;
19213;SDS011;9741;51.020;5.304;2022-12-05T10:12:52;3.50;;;1.47;;
19213;SDS011;9741;51.020;5.304;2022-12-05T10:15:43;1.83;;;1.73;;
19213;SDS011;9741;51.020;5.304;2022-12-05T10:18:14;7.60;;;3.43;;
19213;SDS011;9741;51.020;5.304;2022-12-05T10:20:54;4.27;;;2.90;;
19213;SDS011;9741;51.020;5.304;2022-12-05T10:23:26;4.43;;;3.13;;
19213;SDS011;9741;51.020;5.304;2022-12-05T10:25:58;3.47;;;2.37;;
19213;SDS011;9741;51.020;5.304;2022-12-05T10:28:32;3.63;;;2.93;;
19213;SDS011;9741;51.020;5.304;2022-12-05T10:31:04;2.97;;;2.63;;
19213;SDS011;9741;51.020;5.304;2022-12-05T10:33:38;5.37;;;2.13;;
19213;SDS011;9741;51.020;5.304;2022-12-05T10:36:11;5.10;;;3.47;;
19213;SDS011;9741;51.020;5.304;2022-12-05T10:38:39;2.37;;;2.17;;
19213;SDS011;9741;51.020;5.304;2022-12-05T10:41:09;4.63;;;3.10;;
19213;SDS011;9741;51.020;5.304;2022-12-05T10:43:38;5.93;;;3.20;;
19213;SDS011;9741;51.020;5.304;2022-12-05T10:46:08;2.07;;;1.60;;
19213;SDS011;9741;51.020;5.304;2022-12-05T10:48:36;2.43;;;2.03;;
19213;SDS011;9741;51.020;5.304;2022-12-05T10:51:06;5.37;;;1.27;;
19213;SDS011;9741;51.020;5.304;2022-12-05T10:53:40;4.17;;;1.93;;
19213;SDS011;9741;51.020;5.304;2022-12-05T10:59:05;3.13;;;2.60;;
19213;SDS011;9741;51.020;5.304;2022-12-05T11:01:34;2.43;;;1.83;;
19213;SDS011;9741;51.020;5.304;2022-12-05T11:04:04;4.60;;;2.40;;
19213;SDS011;9741;51.020;5.304;2022-12-05T11:06:39;2.90;;;1.97;;
19213;SDS011;9741;51.020;5.304;2022-12-05T11:09:17;1.00;;;0.90;;
19213;SDS011;9741;51.020;5.304;2022-12-05T11:11:57;3.07;;;2.43;;
19213;SDS011;9741;51.020;5.304;2022-12-05T11:14:28;2.93;;;2.53;;
19213;SDS011;9741;51.020;5.304;2022-12-05T11:16:58;2.73;;;2.53;;
19213;SDS011;9741;51.020;5.304;2022-12-05T11:19:26;2.27;;;2.07;;
19213;SDS011;9741;51.020;5.304;2022-12-05T11:21:55;3.30;;;2.13;;
19213;SDS011;9741;51.020;5.304;2022-12-05T11:24:25;3.87;;;2.47;;
19213;SDS011;9741;51.020;5.304;2022-12-05T11:26:53;5.67;;;2.50;;
19213;SDS011;9741;51.020;5.304;2022-12-05T11:29:29;3.57;;;2.80;;
19213;SDS011;9741;51.020;5.304;2022-12-05T11:31:57;1.93;;;1.77;;
19213;SDS011;9741;51.020;5.304;2022-12-05T11:34:26;4.00;;;2.53;;
19213;SDS011;9741;51.020;5.304;2022-12-05T11:37:00;5.97;;;1.93;;
19213;SDS011;9741;51.020;5.304;2022-12-05T11:39:36;2.80;;;2.07;;
19213;SDS011;9741;51.020;5.304;2022-12-05T11:48:11;2.47;;;2.17;;
19213;SDS011;9741;51.020;5.304;2022-12-05T11:50:55;4.27;;;2.53;;
19213;SDS011;9741;51.020;5.304;2022-12-05T11:53:45;4.60;;;3.03;;
19213;SDS011;9741;51.020;5.304;2022-12-05T11:56:30;3.63;;;2.90;;
19213;SDS011;9741;51.020;5.304;2022-12-05T11:59:14;2.30;;;2.10;;
19213;SDS011;9741;51.020;5.304;2022-12-05T12:02:03;1.87;;;1.47;;
19213;SDS011;9741;51.020;5.304;2022-12-05T12:04:46;3.30;;;2.50;;
19213;SDS011;9741;51.020;5.304;2022-12-05T12:07:24;4.00;;;2.17;;
19213;SDS011;9741;51.020;5.304;2022-12-05T12:10:12;4.90;;;1.93;;
19213;SDS011;9741;51.020;5.304;2022-12-05T12:12:49;4.13;;;1.37;;
19213;SDS011;9741;51.020;5.304;2022-12-05T12:15:30;2.70;;;2.47;;
19213;SDS011;9741;51.020;5.304;2022-12-05T12:18:11;2.70;;;2.20;;
19213;SDS011;9741;51.020;5.304;2022-12-05T12:20:54;2.93;;;1.97;;
19213;SDS011;9741;51.020;5.304;2022-12-05T12:23:36;1.83;;;1.73;;
19213;SDS011;9741;51.020;5.304;2022-12-05T12:26:14;2.77;;;2.33;;
19213;SDS011;9741;51.020;5.304;2022-12-05T12:28:51;1.50;;;1.40;;
19213;SDS011;9741;51.020;5.304;2022-12-05T12:31:33;4.17;;;2.70;;
19213;SDS011;9741;51.020;5.304;2022-12-05T12:34:18;2.00;;;1.63;;
19213;SDS011;9741;51.020;5.304;2022-12-05T12:37:11;1.63;;;1.53;;
19213;SDS011;9741;51.020;5.304;2022-12-05T12:39:46;5.00;;;3.40;;
19213;SDS011;9741;51.020;5.304;2022-12-05T12:42:22;1.63;;;1.53;;
19213;SDS011;9741;51.020;5.304;2022-12-05T12:48:00;2.67;;;2.20;;
19213;SDS011;9741;51.020;5.304;2022-12-05T12:50:39;3.53;;;1.83;;
19213;SDS011;9741;51.020;5.304;2022-12-05T12:56:08;1.97;;;1.80;;
19213;SDS011;9741;51.020;5.304;2022-12-05T12:58:49;2.07;;;1.87;;
19213;SDS011;9741;51.020;5.304;2022-12-05T13:01:24;1.50;;;1.13;;
19213;SDS011;9741;51.020;5.304;2022-12-05T13:03:59;3.90;;;2.40;;
19213;SDS011;9741;51.020;5.304;2022-12-05T13:06:36;2.53;;;1.97;;
19213;SDS011;9741;51.020;5.304;2022-12-05T13:09:07;1.33;;;1.23;;
19213;SDS011;9741;51.020;5.304;2022-12-05T13:11:41;1.83;;;1.40;;
19213;SDS011;9741;51.020;5.304;2022-12-05T13:14:12;2.27;;;2.07;;
19213;SDS011;9741;51.020;5.304;2022-12-05T13:16:41;2.43;;;1.60;;
19213;SDS011;9741;51.020;5.304;2022-12-05T13:19:15;2.53;;;1.87;;
19213;SDS011;9741;51.020;5.304;2022-12-05T13:21:51;2.77;;;2.07;;
19213;SDS011;9741;51.020;5.304;2022-12-05T13:24:22;1.60;;;1.50;;
19213;SDS011;9741;51.020;5.304;2022-12-05T13:26:52;1.50;;;1.23;;
19213;SDS011;9741;51.020;5.304;2022-12-05T13:29:25;2.00;;;1.90;;
19213;SDS011;9741;51.020;5.304;2022-12-05T13:31:57;3.97;;;1.73;;
19213;SDS011;9741;51.020;5.304;2022-12-05T13:34:41;2.67;;;1.67;;
19213;SDS011;9741;51.020;5.304;2022-12-05T13:37:16;1.40;;;1.30;;
19213;SDS011;9741;51.020;5.304;2022-12-05T13:40:03;2.47;;;0.90;;
19213;SDS011;9741;51.020;5.304;2022-12-05T13:42:58;1.53;;;1.43;;
19213;SDS011;9741;51.020;5.304;2022-12-05T13:45:26;1.57;;;0.87;;
19213;SDS011;9741;51.020;5.304;2022-12-05T13:47:57;1.77;;;1.37;;
19213;SDS011;9741;51.020;5.304;2022-12-05T13:50:40;3.93;;;1.53;;
19213;SDS011;9741;51.020;5.304;2022-12-05T13:53:22;2.63;;;1.23;;
19213;SDS011;9741;51.020;5.304;2022-12-05T13:55:56;1.10;;;1.00;;
19213;SDS011;9741;51.020;5.304;2022-12-05T13:58:44;0.87;;;0.87;;
19213;SDS011;9741;51.020;5.304;2022-12-05T14:04:21;3.70;;;1.40;;
19213;SDS011;9741;51.020;5.304;2022-12-05T14:07:07;1.93;;;1.23;;
19213;SDS011;9741;51.020;5.304;2022-12-05T14:09:49;2.97;;;2.00;;
19213;SDS011;9741;51.020;5.304;2022-12-05T14:12:41;2.83;;;2.10;;
19213;SDS011;9741;51.020;5.304;2022-12-05T14:15:27;1.90;;;1.03;;
19213;SDS011;9741;51.020;5.304;2022-12-05T14:17:58;2.33;;;1.37;;
19213;SDS011;9741;51.020;5.304;2022-12-05T14:20:31;2.40;;;1.40;;
19213;SDS011;9741;51.020;5.304;2022-12-05T14:23:20;1.23;;;1.13;;
19213;SDS011;9741;51.020;5.304;2022-12-05T14:26:17;2.20;;;1.80;;
19213;SDS011;9741;51.020;5.304;2022-12-05T14:29:02;2.70;;;1.67;;
19213;SDS011;9741;51.020;5.304;2022-12-05T14:31:43;4.73;;;1.10;;
19213;SDS011;9741;51.020;5.304;2022-12-05T14:34:22;1.90;;;1.60;;
19213;SDS011;9741;51.020;5.304;2022-12-05T14:36:55;6.97;;;2.03;;
19213;SDS011;9741;51.020;5.304;2022-12-05T14:39:30;1.43;;;1.33;;
19213;SDS011;9741;51.020;5.304;2022-12-05T14:42:03;3.33;;;1.27;;
19213;SDS011;9741;51.020;5.304;2022-12-05T14:44:45;1.93;;;1.83;;
19213;SDS011;9741;51.020;5.304;2022-12-05T14:47:16;2.10;;;1.53;;
19213;SDS011;9741;51.020;5.304;2022-12-05T14:49:50;2.00;;;1.80;;
19213;SDS011;9741;51.020;5.304;2022-12-05T14:52:19;2.00;;;1.23;;
19213;SDS011;9741;51.020;5.304;2022-12-05T14:54:48;2.80;;;1.17;;
19213;SDS011;9741;51.020;5.304;2022-12-05T14:57:19;2.27;;;1.97;;
19213;SDS011;9741;51.020;5.304;2022-12-05T14:59:49;2.23;;;1.50;;
19213;SDS011;9741;51.020;5.304;2022-12-05T15:02:21;3.03;;;2.60;;
19213;SDS011;9741;51.020;5.304;2022-12-05T15:04:53;5.43;;;1.67;;
19213;SDS011;9741;51.020;5.304;2022-12-05T15:07:26;1.87;;;0.90;;
19213;SDS011;9741;51.020;5.304;2022-12-05T15:10:01;1.80;;;1.37;;
19213;SDS011;9741;51.020;5.304;2022-12-05T15:12:32;2.67;;;1.43;;
19213;SDS011;9741;51.020;5.304;2022-12-05T15:15:08;3.90;;;2.23;;
19213;SDS011;9741;51.020;5.304;2022-12-05T15:17:42;32.87;;;2.03;;
19213;SDS011;9741;51.020;5.304;2022-12-05T15:20:13;2.30;;;1.73;;
19213;SDS011;9741;51.020;5.304;2022-12-05T15:22:45;5.97;;;2.57;;
19213;SDS011;9741;51.020;5.304;2022-12-05T15:25:25;3.03;;;2.17;;
19213;SDS011;9741;51.020;5.304;2022-12-05T15:27:57;2.67;;;2.47;;
19213;SDS011;9741;51.020;5.304;2022-12-05T15:30:29;2.87;;;2.30;;
19213;SDS011;9741;51.020;5.304;2022-12-05T15:32:57;3.10;;;1.90;;
19213;SDS011;9741;51.020;5.304;2022-12-05T15:35:26;1.33;;;1.23;;
19213;SDS011;9741;51.020;5.304;2022-12-05T15:37:57;2.53;;;2.33;;
19213;SDS011;9741;51.020;5.304;2022-12-05T15:40:30;4.17;;;2.10;;
19213;SDS011;9741;51.020;5.304;2022-12-05T15:43:17;2.90;;;1.70;;
19213;SDS011;9741;51.020;5.304;2022-12-05T15:46:06;3.23;;;1.17;;
19213;SDS011;9741;51.020;5.304;2022-12-05T15:48:35;2.60;;;2.40;;
19213;SDS011;9741;51.020;5.304;2022-12-05T15:51:02;3.73;;;2.20;;